Flight Track Log - Related Links

Times and Time Zones

All times are in EDT time to prevent confusion due to time zone crossing. See the VH-SMM flight status page for this flight to view local times or setup timezone preferences in your user account.

Time Position Orientation Groundspeed Altitude Reporting Facility
EDT Latitude Longitude Course Direction KTS MPH feet Rate Location/Type
Wed 01:19:47 AM -27.5431 152.9692 356° North 125 144 900  Level Aus ATC (RADAR)
Wed 01:20:37 AM -27.5135 152.9670 356° North 130 150 1,000 270 Climbing Aus ATC (RADAR)
Wed 01:21:16 AM -27.4871 152.9707 North 141 162 1,300 364 Climbing Aus ATC (RADAR)
Wed 01:22:16 AM -27.4482 152.9745 North 143 165 1,600 400 Climbing Aus ATC (RADAR)
Wed 01:23:16 AM -27.4105 152.9726 357° North 137 158 2,100 480 Climbing Aus ATC (RADAR)
Wed 01:23:56 AM -27.3859 152.9701 355° North 133 153 2,400 424 Climbing Aus ATC (RADAR)
Wed 01:24:41 AM -27.3582 152.9661 353° North 132 152 2,700 508 Climbing Aus ATC (RADAR)
Wed 01:26:06 AM -27.3106 152.9415 335° Northwest 131 151 3,500 553 Climbing Aus ATC (RADAR)
Wed 01:27:02 AM -27.2797 152.9252 335° Northwest 132 152 4,000 560 Climbing Aus ATC (RADAR)
Wed 01:28:36 AM -27.2215 152.9193 355° North 138 159 4,900 448 Climbing Aus ATC (RADAR)
Wed 01:29:16 AM -27.1962 152.9267 14° North 139 160 5,000 67 Climbing Aus ATC (RADAR)
Wed 01:30:06 AM -27.1654 152.9470 30° Northeast 153 176 5,000 57 Level Aus ATC (RADAR)
Wed 01:31:01 AM -27.1296 152.9675 27° Northeast 157 181 5,100 67 Climbing Aus ATC (RADAR)
Wed 01:31:35 AM -27.1073 152.9803 27° Northeast 154 177 5,100 -64 Level Aus ATC (RADAR)
Wed 01:32:35 AM -27.0689 153.0040 29° Northeast 160 184 5,000 -40 Descending Aus ATC (RADAR)
Wed 01:34:06 AM -27.0138 153.0453 34° Northeast 159 183 5,000  Level Aus ATC (RADAR)
Wed 01:35:05 AM -26.9758 153.0710 31° Northeast 160 184 5,000  Level Aus ATC (RADAR)
Wed 01:36:15 AM -26.9343 153.1060 37° Northeast 161 185 5,000  Level Aus ATC (RADAR)
Wed 01:36:50 AM -26.9133 153.1224 35° Northeast 158 182 5,000  Level Aus ATC (RADAR)
Wed 01:37:35 AM -26.8851 153.1433 34° Northeast 162 186 5,000 -188 Level Aus ATC (RADAR)
Wed 01:39:30 AM -26.8065 153.1729 19° North 172 198 4,500 -388 Descending Aus ATC (RADAR)
Wed 01:40:25 AM -26.7655 153.1587 343° North 166 191 3,900 -574 Descending Aus ATC (RADAR)
Wed 01:41:25 AM -26.7224 153.1434 342° North 158 182 3,400 -632 Descending Aus ATC (RADAR)
Wed 01:42:00 AM -26.6994 153.1290 331° Northwest 161 185 2,900 -1,071 Descending Aus ATC (RADAR)
Wed 01:42:49 AM -26.6672 153.1142 338° Northwest 153 176 1,900 -981 Descending Aus ATC (RADAR)
Wed 01:43:44 AM -26.6310 153.1033 345° North 147 169 1,200 -420 Descending Aus ATC (RADAR)
Wed 01:44:29 AM -26.6048 153.0932 341° North 132 152 1,200 148 Level Aus ATC (RADAR)
Wed 01:45:05 AM -26.5868 153.0843 336° Northwest 122 140 1,400 480 Climbing Aus ATC (RADAR)
Wed 01:46:09 AM -26.5771 153.1222 74° East 112 129 2,000 667 Climbing Aus ATC (RADAR)
Wed 01:46:44 AM -26.5744 153.1409 81° East 107 123 2,500 776 Climbing Aus ATC (RADAR)
Wed 01:47:34 AM -26.5731 153.1712 87° East 114 131 3,100 300 Climbing Aus ATC (RADAR)
Wed 01:48:44 AM -26.5281 153.1824 12° North 156 180 3,100  Level Aus ATC (RADAR)
Wed 01:49:19 AM -26.5022 153.1924 19° North 165 190 3,100 -67 Level Aus ATC (RADAR)
Wed 01:50:14 AM -26.4615 153.2028 13° North 164 189 3,000  Descending Aus ATC (RADAR)
Wed 01:51:09 AM -26.4211 153.2153 16° North 166 191 3,100 67 Climbing Aus ATC (RADAR)
Wed 01:51:44 AM -26.3953 153.2195 North 163 188 3,100 -67 Level Aus ATC (RADAR)
Wed 01:52:38 AM -26.3560 153.2326 17° North 159 183 3,000  Descending Aus ATC (RADAR)
Wed 01:53:33 AM -26.3211 153.2600 35° Northeast 163 188 3,100  Climbing Aus ATC (RADAR)
Wed 01:54:59 AM -26.3303 153.2818 115° Southeast 99 114 3,000 -41 Descending Aus ATC (RADAR)
Wed 01:55:58 AM -26.3445 153.2412 249° West 136 157 3,000 -61 Level Aus ATC (RADAR)
Wed 01:56:38 AM -26.3636 153.2281 212° Southwest 124 143 2,900 -60 Descending Aus ATC (RADAR)
Wed 01:57:38 AM -26.3925 153.2137 204° Southwest 113 130 2,900  Level Aus ATC (RADAR)
Wed 01:58:13 AM -26.4076 153.2041 210° Southwest 106 122 2,900  Level Aus ATC (RADAR)
Wed 01:59:28 AM -26.4399 153.1814 212° Southwest 112 129 2,900  Level Aus ATC (RADAR)
Wed 02:00:18 AM -26.4637 153.1715 201° Southwest 111 128 2,900 -229 Level Aus ATC (RADAR)
Wed 02:01:13 AM -26.4891 153.1567 207° Southwest 112 129 2,500 -574 Descending Aus ATC (RADAR)
Wed 02:01:52 AM -26.5073 153.1426 215° Southwest 118 136 2,000 -750 Descending Aus ATC (RADAR)
Wed 02:02:49 AM -26.5321 153.1268 210° Southwest 110 127 1,300 -293 Descending Aus ATC (RADAR)
Wed 02:05:37 AM -26.6013 153.0954 202° Southwest 86 99 900 173 Descending Aus ATC (RADAR)
Wed 02:06:52 AM -26.6219 153.1239 129° Southeast 96 110 2,000 835 Climbing Aus ATC (RADAR)
Wed 02:07:32 AM -26.6351 153.1391 134° Southeast 99 114 2,500 695 Climbing Aus ATC (RADAR)
Wed 02:08:27 AM -26.6524 153.1607 132° Southeast 103 119 3,100 277 Climbing Aus ATC (RADAR)
Wed 02:09:42 AM -26.6665 153.2003 112° Southeast 122 140 3,100 -46 Level Aus ATC (RADAR)
Wed 02:10:37 AM -26.6294 153.1934 351° North 146 168 3,000 -52 Descending Aus ATC (RADAR)
Wed 02:11:37 AM -26.6096 153.1511 298° West 142 163 3,000 63 Level Aus ATC (RADAR)
Wed 02:12:12 AM -26.5992 153.1270 296° West 142 163 3,100 67 Climbing Aus ATC (RADAR)
Wed 02:13:07 AM -26.5891 153.0883 286° West 139 160 3,100 -50 Level Aus ATC (RADAR)
Wed 02:14:11 AM -26.6098 153.0676 222° Southwest 127 146 3,000 -55 Descending Aus ATC (RADAR)
Wed 02:14:56 AM -26.6215 153.0903 120° Southeast 108 124 3,000 63 Level Aus ATC (RADAR)
Wed 02:15:46 AM -26.5971 153.1192 47° Northeast 143 165 3,100 57 Climbing Aus ATC (RADAR)
Wed 02:16:41 AM -26.5654 153.1395 30° Northeast 159 183 3,100  Level Aus ATC (RADAR)
Wed 02:17:21 AM -26.5599 153.1125 283° West 134 154 3,100 -74 Level Aus ATC (RADAR)
Wed 02:18:02 AM -26.5821 153.1077 191° South 123 142 3,000  Descending Aus ATC (RADAR)
Wed 02:18:41 AM -26.5947 153.0869 236° Southwest 114 131 3,100 58 Climbing Aus ATC (RADAR)
Wed 02:19:46 AM -26.6223 153.0861 182° South 95 109 3,100  Level Aus ATC (RADAR)
Wed 02:20:16 AM -26.6265 153.0719 252° West 83 96 3,100  Level Aus ATC (RADAR)
Wed 02:20:56 AM -26.6070 153.0591 330° Northwest 129 148 3,100  Level Aus ATC (RADAR)
Wed 02:21:41 AM -26.5925 153.0865 59° Northeast 121 139 3,100 -75 Level Aus ATC (RADAR)
Wed 02:22:16 AM -26.5795 153.1020 47° Northeast 126 145 3,000 -126 Descending Aus ATC (RADAR)
Wed 02:23:16 AM -26.5515 153.1344 46° Northeast 140 161 2,900 -63 Descending Aus ATC (RADAR)
Wed 02:23:51 AM -26.5387 153.1569 58° Northeast 144 166 2,900 -220 Level Aus ATC (RADAR)
Wed 02:25:05 AM -26.5190 153.2089 67° East 144 166 2,500 -339 Descending Aus ATC (RADAR)
Wed 02:25:55 AM -26.4888 153.2281 30° Northeast 166 191 2,200 -273 Descending Aus ATC (RADAR)
Wed 02:26:55 AM -26.4796 153.1900 285° West 147 169 2,000 -379 Descending Aus ATC (RADAR)
Wed 02:27:30 AM -26.4943 153.1746 223° Southwest 128 147 1,600 -442 Descending Aus ATC (RADAR)
Wed 02:28:30 AM -26.5164 153.1546 219° Southwest 104 120 1,300 138 Descending Aus ATC (RADAR)
Wed 02:29:40 AM -26.5417 153.1297 221° Southwest 103 119 1,900 629 Climbing Aus ATC (RADAR)
Wed 02:30:15 AM -26.5562 153.1194 212° Southwest 105 121 2,400 706 Climbing Aus ATC (RADAR)
Wed 02:31:05 AM -26.5746 153.1017 221° Southwest 103 119 2,900 600 Climbing Aus ATC (RADAR)
Wed 02:32:05 AM -26.5927 153.0746 233° Southwest 107 123 3,500 632 Climbing Aus ATC (RADAR)
Wed 02:32:40 AM -26.6051 153.0613 224° Southwest 112 129 3,900 667 Climbing Aus ATC (RADAR)
Wed 02:33:35 AM -26.6288 153.0512 201° Southwest 101 116 4,500 626 Climbing Aus ATC (RADAR)
Wed 02:34:35 AM -26.6573 153.0402 199° South 110 127 5,100 383 Climbing Aus ATC (RADAR)
Wed 02:35:09 AM -26.6752 153.0302 207° Southwest 118 136 5,100  Level Aus ATC (RADAR)
Wed 02:36:01 AM -26.7024 153.0116 211° Southwest 137 158 5,100  Level Aus ATC (RADAR)
Wed 02:37:04 AM -26.7377 152.9884 210° Southwest 135 155 5,100 -61 Level Aus ATC (RADAR)
Wed 02:37:39 AM -26.7571 152.9774 207° Southwest 134 154 5,000  Descending Aus ATC (RADAR)
Wed 02:38:39 AM -26.7917 152.9566 208° Southwest 141 162 5,100  Climbing Aus ATC (RADAR)
Wed 02:39:49 AM -26.8292 152.9321 210° Southwest 135 155 5,000 -57 Descending Aus ATC (RADAR)
Wed 02:40:24 AM -26.8473 152.9178 215° Southwest 137 158 5,000  Level Aus ATC (RADAR)
Wed 02:41:14 AM -26.8753 152.9016 207° Southwest 137 158 5,000  Level Aus ATC (RADAR)
Wed 02:42:14 AM -26.9078 152.8803 210° Southwest 136 157 5,000  Level Aus ATC (RADAR)
Wed 02:42:44 AM -26.9249 152.8714 205° Southwest 137 158 5,000 52 Level Aus ATC (RADAR)
Wed 02:44:09 AM -26.9755 152.8669 185° South 127 146 5,100  Climbing Aus ATC (RADAR)
Wed 02:45:33 AM -27.0295 152.8600 187° South 138 159 5,000 -43 Descending Aus ATC (RADAR)
Wed 02:46:28 AM -27.0635 152.8550 187° South 133 153 5,000 -55 Level Aus ATC (RADAR)
Wed 02:47:23 AM -27.0981 152.8506 186° South 135 155 4,900  Descending Aus ATC (RADAR)
Wed 02:47:58 AM -27.1205 152.8495 182° South 138 159 5,000 63 Climbing Aus ATC (RADAR)
Wed 02:48:58 AM -27.1579 152.8448 186° South 136 157 5,000 -166 Level Aus ATC (RADAR)
Wed 02:50:23 AM -27.2132 152.8468 178° South 145 167 4,600 -343 Descending Aus ATC (RADAR)
Wed 02:51:18 AM -27.2478 152.8581 164° South 141 162 4,200 -470 Descending Aus ATC (RADAR)
Wed 02:52:18 AM -27.2862 152.8704 164° South 145 167 3,700 -505 Descending Aus ATC (RADAR)
Wed 02:52:53 AM -27.3086 152.8774 165° South 142 163 3,400 -518 Descending Aus ATC (RADAR)
Wed 02:55:58 AM -27.4287 152.9163 164° South 145 167 1,800 -455 Descending Aus ATC (RADAR)
Wed 02:57:17 AM -27.4804 152.9328 164° South 143 165 1,400 -178 Descending Aus ATC (RADAR)
Wed 02:58:47 AM -27.5350 152.9533 162° South 136 157 1,300 -248 Descending Aus ATC (RADAR)
Wed 02:59:42 AM -27.5628 152.9719 149° Southeast 125 144 800 -733 Descending Aus ATC (RADAR)
Wed 03:00:17 AM -27.5713 152.9920 116° Southeast 118 136 200 -1,029 Descending Aus ATC (RADAR)

Login

Don't have an account? Register now (free) for customized features, flight alerts, and more!